createdAt,value
2023-03-01T00:00:57.226Z,1011.27
2023-03-01T00:01:57.305Z,1011.25
2023-03-01T00:02:57.204Z,1011.23
2023-03-01T00:03:57.224Z,1011.23
2023-03-01T00:04:57.194Z,1011.25
2023-03-01T00:05:57.195Z,1011.19
2023-03-01T00:06:57.163Z,1011.16
2023-03-01T00:07:57.154Z,1011.17
2023-03-01T00:08:57.142Z,1011.11
2023-03-01T00:09:57.131Z,1011.11
2023-03-01T00:10:57.157Z,1011.09
2023-03-01T00:11:57.147Z,1011.06
2023-03-01T00:12:57.132Z,1011.12
2023-03-01T00:13:57.088Z,1011.12
2023-03-01T00:14:57.108Z,1011.16
2023-03-01T00:15:57.095Z,1011.17
2023-03-01T00:16:57.165Z,1011.20
2023-03-01T00:17:57.044Z,1011.20
2023-03-01T00:18:57.031Z,1011.20
2023-03-01T00:19:57.042Z,1011.18
2023-03-01T00:20:57.027Z,1011.19
2023-03-01T00:21:57.021Z,1011.17
2023-03-01T00:22:57.002Z,1011.17
2023-03-01T00:23:57.004Z,1011.17
2023-03-01T00:24:56.963Z,1011.19
2023-03-01T00:25:56.970Z,1011.17
2023-03-01T00:26:56.976Z,1011.17
2023-03-01T00:27:56.959Z,1011.18
2023-03-01T00:28:56.944Z,1011.13
2023-03-01T00:29:56.915Z,1011.16
2023-03-01T00:30:57.072Z,1011.13
2023-03-01T00:31:56.968Z,1011.12
2023-03-01T00:32:56.907Z,1011.12
2023-03-01T00:33:56.874Z,1011.19
2023-03-01T00:34:56.891Z,1011.17
2023-03-01T00:35:56.983Z,1011.16
2023-03-01T00:36:56.884Z,1011.19
2023-03-01T00:37:56.852Z,1011.20
2023-03-01T00:38:56.827Z,1011.22
2023-03-01T00:39:56.847Z,1011.25
2023-03-01T00:40:56.847Z,1011.24
2023-03-01T00:41:56.808Z,1011.23
2023-03-01T00:42:56.803Z,1011.27
2023-03-01T00:43:56.797Z,1011.25
2023-03-01T00:44:56.755Z,1011.28
2023-03-01T00:45:56.839Z,1011.29
2023-03-01T00:46:56.755Z,1011.36
2023-03-01T00:47:56.756Z,1011.37
2023-03-01T00:48:56.730Z,1011.35
2023-03-01T00:49:56.702Z,1011.32
2023-03-01T00:50:56.721Z,1011.37
2023-03-01T00:51:56.708Z,1011.28
2023-03-01T00:52:56.666Z,1011.24
2023-03-01T00:53:56.655Z,1011.25
2023-03-01T00:54:56.674Z,1011.24
2023-03-01T00:55:56.633Z,1011.29
2023-03-01T00:56:56.628Z,1011.26
2023-03-01T00:57:56.632Z,1011.21
2023-03-01T00:58:56.630Z,1011.24
2023-03-01T00:59:56.591Z,1011.23
2023-03-01T01:00:56.587Z,1011.32
2023-03-01T01:01:56.634Z,1011.23
2023-03-01T01:02:56.660Z,1011.24
2023-03-01T01:03:56.574Z,1011.22
2023-03-01T01:04:56.530Z,1011.19
2023-03-01T01:05:56.523Z,1011.11
2023-03-01T01:06:56.517Z,1011.09
2023-03-01T01:07:56.533Z,1011.06
2023-03-01T01:08:56.514Z,1011.04
2023-03-01T01:09:56.498Z,1011.00
2023-03-01T01:10:56.500Z,1011.03
2023-03-01T01:11:56.484Z,1011.01
2023-03-01T01:12:56.454Z,1011.06
2023-03-01T01:13:56.467Z,1011.07
2023-03-01T01:14:56.432Z,1011.06
2023-03-01T01:15:56.488Z,1011.08
2023-03-01T01:16:56.400Z,1011.06
2023-03-01T01:17:56.426Z,1011.01
2023-03-01T01:18:56.384Z,1011.00
2023-03-01T01:19:56.377Z,1010.98
2023-03-01T01:20:56.357Z,1011.00
2023-03-01T01:21:56.357Z,1010.92
2023-03-01T01:22:56.359Z,1010.92
2023-03-01T01:23:56.382Z,1010.97
2023-03-01T01:24:56.327Z,1010.92
2023-03-01T01:25:56.331Z,1010.92
2023-03-01T01:26:56.329Z,1010.96
2023-03-01T01:27:56.291Z,1010.98
2023-03-01T01:28:56.270Z,1010.99
2023-03-01T01:29:56.267Z,1011.01
2023-03-01T01:30:56.313Z,1011.02
2023-03-01T01:31:56.276Z,1010.95
2023-03-01T01:32:56.258Z,1010.94
2023-03-01T01:33:56.237Z,1010.92
2023-03-01T01:34:56.217Z,1010.87
2023-03-01T01:35:56.228Z,1010.89
2023-03-01T01:36:56.335Z,1010.87
2023-03-01T01:37:56.237Z,1010.87
2023-03-01T01:38:56.168Z,1010.85
2023-03-01T01:39:56.171Z,1010.88
2023-03-01T01:40:56.160Z,1010.90
2023-03-01T01:41:56.158Z,1010.87
2023-03-01T01:42:56.124Z,1010.84
2023-03-01T01:43:56.113Z,1010.86
2023-03-01T01:44:56.106Z,1010.83
2023-03-01T01:45:56.105Z,1010.87
2023-03-01T01:46:56.245Z,1010.85
2023-03-01T01:47:56.067Z,1010.83
2023-03-01T01:48:56.080Z,1010.82
2023-03-01T01:49:56.055Z,1010.80
2023-03-01T01:50:56.041Z,1010.78
2023-03-01T01:51:56.047Z,1010.79
2023-03-01T01:52:56.032Z,1010.83
2023-03-01T01:53:56.000Z,1010.78
2023-03-01T01:54:56.038Z,1010.75
2023-03-01T01:55:55.996Z,1010.73
2023-03-01T01:56:55.995Z,1010.73
2023-03-01T01:57:55.959Z,1010.75
2023-03-01T01:58:55.947Z,1010.77
2023-03-01T01:59:55.964Z,1010.71
2023-03-01T02:00:55.927Z,1010.73
2023-03-01T02:01:55.935Z,1010.77
2023-03-01T02:02:56.043Z,1010.75
2023-03-01T02:03:55.890Z,1010.72
2023-03-01T02:04:55.966Z,1010.69
2023-03-01T02:05:55.962Z,1010.66
2023-03-01T02:06:55.880Z,1010.65
2023-03-01T02:07:55.860Z,1010.64
2023-03-01T02:08:55.907Z,1010.60
2023-03-01T02:09:55.841Z,1010.61
2023-03-01T02:10:55.852Z,1010.57
2023-03-01T02:11:55.853Z,1010.60
2023-03-01T02:12:55.788Z,1010.55
2023-03-01T02:13:55.798Z,1010.59
2023-03-01T02:14:55.794Z,1010.56
2023-03-01T02:15:55.781Z,1010.56
2023-03-01T02:16:55.758Z,1010.53
2023-03-01T02:17:55.763Z,1010.53
2023-03-01T02:18:55.728Z,1010.51
2023-03-01T02:19:55.720Z,1010.52
2023-03-01T02:20:55.740Z,1010.46
2023-03-01T02:21:55.729Z,1010.47
2023-03-01T02:22:55.726Z,1010.47
2023-03-01T02:23:55.684Z,1010.42
2023-03-01T02:24:55.667Z,1010.43
2023-03-01T02:25:55.663Z,1010.42
2023-03-01T02:26:55.670Z,1010.44
2023-03-01T02:27:55.653Z,1010.41
2023-03-01T02:28:55.672Z,1010.45
2023-03-01T02:29:56.853Z,1010.42
2023-03-01T02:30:55.743Z,1010.44
2023-03-01T02:31:55.603Z,1010.41
2023-03-01T02:32:55.621Z,1010.43
2023-03-01T02:33:55.596Z,1010.39
2023-03-01T02:34:55.568Z,1010.42
2023-03-01T02:35:55.586Z,1010.39
2023-03-01T02:36:55.549Z,1010.42
2023-03-01T02:37:55.518Z,1010.38
2023-03-01T02:38:55.551Z,1010.37
2023-03-01T02:39:55.604Z,1010.32
2023-03-01T02:40:55.499Z,1010.29
2023-03-01T02:41:55.504Z,1010.29
2023-03-01T02:42:55.498Z,1010.30
2023-03-01T02:43:55.498Z,1010.31
2023-03-01T02:44:55.458Z,1010.27
2023-03-01T02:45:55.433Z,1010.32
2023-03-01T02:46:55.487Z,1010.34
2023-03-01T02:47:55.424Z,1010.30
2023-03-01T02:48:55.408Z,1010.33
2023-03-01T02:49:55.468Z,1010.31
2023-03-01T02:50:55.392Z,1010.36
2023-03-01T02:51:55.405Z,1010.31
2023-03-01T02:52:55.363Z,1010.35
2023-03-01T02:53:55.352Z,1010.36
2023-03-01T02:54:55.353Z,1010.29
2023-03-01T02:55:55.329Z,1010.30
2023-03-01T02:56:55.353Z,1010.30
2023-03-01T02:57:55.360Z,1010.32
2023-03-01T02:58:55.294Z,1010.29
2023-03-01T02:59:55.343Z,1010.28
2023-03-01T03:00:55.351Z,1010.31
2023-03-01T03:01:55.282Z,1010.26
2023-03-01T03:02:55.287Z,1010.31
2023-03-01T03:03:55.292Z,1010.33
2023-03-01T03:04:55.246Z,1010.27
2023-03-01T03:05:55.230Z,1010.30
2023-03-01T03:06:55.227Z,1010.33
2023-03-01T03:07:55.215Z,1010.31
2023-03-01T03:08:55.188Z,1010.30
2023-03-01T03:09:55.200Z,1010.35
2023-03-01T03:10:55.179Z,1010.34
2023-03-01T03:11:55.170Z,1010.32
2023-03-01T03:12:55.183Z,1010.34
2023-03-01T03:13:55.150Z,1010.33
2023-03-01T03:14:55.119Z,1010.32
2023-03-01T03:15:55.295Z,1010.29
2023-03-01T03:16:55.108Z,1010.30
2023-03-01T03:17:55.134Z,1010.24
2023-03-01T03:18:55.108Z,1010.24
2023-03-01T03:19:55.109Z,1010.22
2023-03-01T03:20:55.074Z,1010.22
2023-03-01T03:21:55.079Z,1010.23
2023-03-01T03:22:55.051Z,1010.22
2023-03-01T03:23:55.021Z,1010.19
2023-03-01T03:24:55.043Z,1010.19
2023-03-01T03:25:55.023Z,1010.15
2023-03-01T03:26:55.000Z,1010.19
2023-03-01T03:27:54.988Z,1010.16
2023-03-01T03:28:55.006Z,1010.17
2023-03-01T03:29:54.966Z,1010.14
2023-03-01T03:30:54.968Z,1010.13
2023-03-01T03:31:55.095Z,1010.12
2023-03-01T03:32:54.991Z,1010.13
2023-03-01T03:33:54.922Z,1010.12
2023-03-01T03:34:54.899Z,1010.13
2023-03-01T03:35:54.946Z,1010.13
2023-03-01T03:36:54.903Z,1010.16
2023-03-01T03:37:54.867Z,1010.12
2023-03-01T03:38:54.868Z,1010.08
2023-03-01T03:39:54.850Z,1010.08
2023-03-01T03:40:54.855Z,1010.05
2023-03-01T03:41:54.834Z,1010.04
2023-03-01T03:42:54.817Z,1010.08
2023-03-01T03:43:54.813Z,1010.03
2023-03-01T03:44:54.784Z,1010.06
2023-03-01T03:45:54.845Z,1010.05
2023-03-01T03:46:54.788Z,1010.05
2023-03-01T03:47:54.780Z,1010.07
2023-03-01T03:48:54.748Z,1010.06
2023-03-01T03:49:54.754Z,1010.03
2023-03-01T03:50:54.721Z,1010.06
2023-03-01T03:51:54.730Z,1010.01
2023-03-01T03:52:54.702Z,1010.04
2023-03-01T03:53:54.715Z,1010.07
2023-03-01T03:54:54.682Z,1010.06
2023-03-01T03:55:54.682Z,1010.04
2023-03-01T03:56:54.658Z,1010.00
2023-03-01T03:57:54.659Z,1009.98
2023-03-01T03:58:54.665Z,1009.97
2023-03-01T03:59:54.635Z,1009.94
2023-03-01T04:00:54.650Z,1009.96
2023-03-01T04:01:54.655Z,1009.98
2023-03-01T04:02:54.699Z,1009.95
2023-03-01T04:03:54.607Z,1009.92
2023-03-01T04:04:54.606Z,1009.94
2023-03-01T04:05:54.568Z,1009.97
2023-03-01T04:06:54.570Z,1009.94
2023-03-01T04:07:54.569Z,1009.99
2023-03-01T04:08:54.525Z,1009.97
2023-03-01T04:09:54.530Z,1010.04
2023-03-01T04:10:54.539Z,1010.08
2023-03-01T04:11:54.493Z,1010.07
2023-03-01T04:12:54.481Z,1010.00
2023-03-01T04:13:54.476Z,1010.07
2023-03-01T04:14:54.465Z,1010.04
2023-03-01T04:15:54.490Z,1010.05
2023-03-01T04:16:54.593Z,1010.05
2023-03-01T04:17:54.449Z,1010.09
2023-03-01T04:18:54.449Z,1010.15
2023-03-01T04:19:54.428Z,1010.12
2023-03-01T04:20:54.421Z,1010.14
2023-03-01T04:21:54.389Z,1010.13
2023-03-01T04:22:54.406Z,1010.17
2023-03-01T04:23:54.400Z,1010.18
2023-03-01T04:24:54.349Z,1010.18
2023-03-01T04:25:54.373Z,1010.18
2023-03-01T04:26:54.394Z,1010.16
2023-03-01T04:27:54.331Z,1010.19
2023-03-01T04:28:54.350Z,1010.14
2023-03-01T04:29:54.309Z,1010.14
2023-03-01T04:30:54.415Z,1010.16
2023-03-01T04:31:54.432Z,1010.17
2023-03-01T04:32:54.271Z,1010.17
2023-03-01T04:33:54.282Z,1010.19
2023-03-01T04:34:54.241Z,1010.19
2023-03-01T04:35:54.391Z,1010.21
2023-03-01T04:36:54.381Z,1010.16
2023-03-01T04:37:54.210Z,1010.13
2023-03-01T04:38:54.244Z,1010.09
2023-03-01T04:39:54.188Z,1010.09
2023-03-01T04:40:54.178Z,1010.12
2023-03-01T04:41:54.207Z,1010.09
2023-03-01T04:42:54.169Z,1010.12
2023-03-01T04:43:54.170Z,1010.09
2023-03-01T04:44:54.134Z,1010.04
2023-03-01T04:45:54.155Z,1010.05
2023-03-01T04:46:54.134Z,1010.04
2023-03-01T04:47:54.108Z,1010.01
2023-03-01T04:48:54.090Z,1010.02
2023-03-01T04:49:54.080Z,1010.01
2023-03-01T04:50:54.062Z,1010.02
2023-03-01T04:51:54.096Z,1010.05
2023-03-01T04:52:54.050Z,1010.02
2023-03-01T04:53:54.050Z,1010.00
2023-03-01T04:54:54.019Z,1009.99
2023-03-01T04:55:54.049Z,1009.97
2023-03-01T04:56:54.007Z,1009.94
2023-03-01T04:57:54.106Z,1009.91
2023-03-01T04:58:54.023Z,1009.96
2023-03-01T04:59:54.008Z,1009.98
2023-03-01T05:00:53.966Z,1009.99
2023-03-01T05:01:53.946Z,1009.96
2023-03-01T05:02:54.003Z,1009.99
2023-03-01T05:03:53.930Z,1009.94
2023-03-01T05:04:53.941Z,1009.95
2023-03-01T05:05:53.899Z,1009.93
2023-03-01T05:06:53.894Z,1010.02
2023-03-01T05:07:53.894Z,1010.00
2023-03-01T05:08:53.858Z,1009.99
2023-03-01T05:09:55.094Z,1010.00
2023-03-01T05:10:53.872Z,1009.99
2023-03-01T05:11:53.826Z,1010.04
2023-03-01T05:12:53.822Z,1010.02
2023-03-01T05:13:53.818Z,1010.03
2023-03-01T05:14:53.796Z,1010.11
2023-03-01T05:15:53.828Z,1010.14
2023-03-01T05:16:53.771Z,1010.11
2023-03-01T05:17:53.785Z,1010.13
2023-03-01T05:18:53.784Z,1010.11
2023-03-01T05:19:53.738Z,1010.11
2023-03-01T05:20:53.752Z,1010.09
2023-03-01T05:21:53.718Z,1010.10
2023-03-01T05:22:53.699Z,1010.09
2023-03-01T05:23:53.708Z,1010.11
2023-03-01T05:24:53.673Z,1010.06
2023-03-01T05:25:53.687Z,1010.01
2023-03-01T05:26:53.662Z,1010.01
2023-03-01T05:27:53.665Z,1010.02
2023-03-01T05:28:53.651Z,1010.04
2023-03-01T05:29:53.629Z,1010.02
2023-03-01T05:30:53.621Z,1010.05
2023-03-01T05:31:53.643Z,1010.00
2023-03-01T05:32:53.590Z,1010.04
2023-03-01T05:33:53.624Z,1009.94
2023-03-01T05:34:53.570Z,1010.01
2023-03-01T05:35:53.589Z,1009.97
2023-03-01T05:36:53.545Z,1009.98
2023-03-01T05:37:53.552Z,1010.03
2023-03-01T05:38:53.523Z,1010.02
2023-03-01T05:39:53.533Z,1010.01
2023-03-01T05:40:53.538Z,1010.01
2023-03-01T05:41:53.518Z,1010.02
2023-03-01T05:42:53.480Z,1010.01
2023-03-01T05:43:53.503Z,1010.01
2023-03-01T05:44:53.482Z,1009.95
2023-03-01T05:45:53.525Z,1009.96
2023-03-01T05:46:53.457Z,1009.95
2023-03-01T05:47:53.431Z,1009.97
2023-03-01T05:48:53.426Z,1009.99
2023-03-01T05:49:53.416Z,1009.95
2023-03-01T05:50:53.442Z,1009.96
2023-03-01T05:51:53.395Z,1009.91
2023-03-01T05:52:53.380Z,1009.93
2023-03-01T05:53:53.362Z,1009.91
2023-03-01T05:54:53.373Z,1009.88
2023-03-01T05:55:53.370Z,1009.89
2023-03-01T05:56:53.324Z,1009.87
2023-03-01T05:57:53.326Z,1009.87
2023-03-01T05:58:53.308Z,1009.88
2023-03-01T05:59:53.350Z,1009.90
2023-03-01T06:00:55.170Z,1009.90
2023-03-01T06:01:53.305Z,1009.83
2023-03-01T06:02:53.271Z,1009.88
2023-03-01T06:03:53.275Z,1009.88
2023-03-01T06:04:53.328Z,1009.89
2023-03-01T06:05:53.245Z,1009.87
2023-03-01T06:06:53.224Z,1009.88
2023-03-01T06:07:53.243Z,1009.92
2023-03-01T06:08:53.208Z,1009.88
2023-03-01T06:09:53.201Z,1009.88
2023-03-01T06:10:53.180Z,1009.86
2023-03-01T06:11:53.204Z,1009.90
2023-03-01T06:12:53.169Z,1009.90
2023-03-01T06:13:53.137Z,1009.89
2023-03-01T06:14:53.123Z,1009.91
2023-03-01T06:15:53.325Z,1009.90
2023-03-01T06:16:53.111Z,1009.90
2023-03-01T06:17:53.124Z,1009.94
2023-03-01T06:18:53.101Z,1009.89
2023-03-01T06:19:53.080Z,1009.92
2023-03-01T06:20:53.129Z,1009.94
2023-03-01T06:21:53.056Z,1009.95
2023-03-01T06:22:53.061Z,1009.97
2023-03-01T06:23:53.114Z,1009.96
2023-03-01T06:24:53.021Z,1009.95
2023-03-01T06:25:53.015Z,1009.97
2023-03-01T06:26:53.038Z,1009.98
2023-03-01T06:27:53.221Z,1009.96
2023-03-01T06:28:52.973Z,1009.94
2023-03-01T06:29:52.963Z,1009.95
2023-03-01T06:30:52.982Z,1009.90
2023-03-01T06:31:53.040Z,1009.92
2023-03-01T06:32:52.959Z,1009.94
2023-03-01T06:33:52.917Z,1009.96
2023-03-01T06:34:52.925Z,1009.95
2023-03-01T06:35:53.025Z,1009.87
2023-03-01T06:36:52.884Z,1009.91
2023-03-01T06:37:52.876Z,1009.91
2023-03-01T06:38:52.892Z,1009.93
2023-03-01T06:39:52.871Z,1009.88
2023-03-01T06:40:52.982Z,1009.85
2023-03-01T06:41:54.214Z,1009.88
2023-03-01T06:42:52.878Z,1009.82
2023-03-01T06:43:52.848Z,1009.82
2023-03-01T06:44:52.825Z,1009.83
2023-03-01T06:45:52.833Z,1009.83
2023-03-01T06:46:52.904Z,1009.82
2023-03-01T06:47:52.808Z,1009.88
2023-03-01T06:48:53.445Z,1009.77
2023-03-01T06:49:52.755Z,1009.78
2023-03-01T06:50:52.802Z,1009.77
2023-03-01T06:51:52.750Z,1009.79
2023-03-01T06:52:52.708Z,1009.76
2023-03-01T06:53:52.697Z,1009.78
2023-03-01T06:54:52.698Z,1009.82
2023-03-01T06:55:52.674Z,1009.77
2023-03-01T06:56:52.679Z,1009.80
2023-03-01T06:57:52.670Z,1009.77
2023-03-01T06:58:52.647Z,1009.72
2023-03-01T06:59:52.673Z,1009.77
2023-03-01T07:00:52.633Z,1009.75
2023-03-01T07:01:52.652Z,1009.78
2023-03-01T07:02:52.645Z,1009.78
2023-03-01T07:03:52.597Z,1009.82
2023-03-01T07:04:52.576Z,1009.81
2023-03-01T07:05:52.609Z,1009.82
2023-03-01T07:06:52.566Z,1009.84
2023-03-01T07:07:52.570Z,1009.79
2023-03-01T07:08:52.538Z,1009.78
2023-03-01T07:09:52.518Z,1009.78
2023-03-01T07:10:52.764Z,1009.72
2023-03-01T07:11:52.497Z,1009.80
2023-03-01T07:12:52.510Z,1009.78
2023-03-01T07:13:52.506Z,1009.76
2023-03-01T07:14:52.478Z,1009.76
2023-03-01T07:15:52.491Z,1009.74
2023-03-01T07:16:52.438Z,1009.75
2023-03-01T07:17:52.464Z,1009.70
2023-03-01T07:18:52.416Z,1009.76
2023-03-01T07:19:52.429Z,1009.76
2023-03-01T07:20:52.407Z,1009.75
2023-03-01T07:21:52.393Z,1009.77
2023-03-01T07:22:52.374Z,1009.78
2023-03-01T07:23:52.390Z,1009.75
2023-03-01T07:24:52.353Z,1009.73
2023-03-01T07:25:52.352Z,1009.74
2023-03-01T07:26:52.374Z,1009.68
2023-03-01T07:27:52.364Z,1009.67
2023-03-01T07:28:52.310Z,1009.68
2023-03-01T07:29:52.309Z,1009.65
2023-03-01T07:30:52.290Z,1009.72
2023-03-01T07:31:52.362Z,1009.66
2023-03-01T07:32:54.710Z,1009.69
2023-03-01T07:33:52.255Z,1009.67
2023-03-01T07:34:52.246Z,1009.66
2023-03-01T07:35:52.278Z,1009.65
2023-03-01T07:36:52.228Z,1009.64
2023-03-01T07:37:52.244Z,1009.69
2023-03-01T07:38:52.220Z,1009.68
2023-03-01T07:39:52.221Z,1009.70
2023-03-01T07:40:52.207Z,1009.68
2023-03-01T07:41:52.176Z,1009.66
2023-03-01T07:42:52.160Z,1009.68
2023-03-01T07:43:52.155Z,1009.65
2023-03-01T07:44:52.138Z,1009.65
2023-03-01T07:45:52.203Z,1009.64
2023-03-01T07:46:52.151Z,1009.62
2023-03-01T07:47:52.122Z,1009.63
2023-03-01T07:48:52.100Z,1009.59
2023-03-01T07:49:52.091Z,1009.58
2023-03-01T07:50:52.075Z,1009.59
2023-03-01T07:51:52.072Z,1009.62
2023-03-01T07:52:52.163Z,1009.65
2023-03-01T07:53:52.048Z,1009.68
2023-03-01T07:54:52.055Z,1009.64
2023-03-01T07:55:52.062Z,1009.63
2023-03-01T07:56:52.007Z,1009.59
2023-03-01T07:57:52.041Z,1009.58
2023-03-01T07:58:51.992Z,1009.60
2023-03-01T07:59:51.966Z,1009.59
2023-03-01T08:00:51.963Z,1009.57
2023-03-01T08:01:51.989Z,1009.58
2023-03-01T08:02:51.964Z,1009.58
2023-03-01T08:03:51.961Z,1009.58
2023-03-01T08:04:51.912Z,1009.56
2023-03-01T08:05:51.912Z,1009.54
2023-03-01T08:06:51.909Z,1009.53
2023-03-01T08:07:51.903Z,1009.55
2023-03-01T08:08:51.910Z,1009.54
2023-03-01T08:09:51.865Z,1009.54
2023-03-01T08:10:51.847Z,1009.49
2023-03-01T08:11:51.912Z,1009.52
2023-03-01T08:12:51.833Z,1009.43
2023-03-01T08:13:53.626Z,1009.48
2023-03-01T08:14:51.833Z,1009.45
2023-03-01T08:15:51.810Z,1009.42
2023-03-01T08:16:51.813Z,1009.46
2023-03-01T08:17:51.780Z,1009.40
2023-03-01T08:18:51.757Z,1009.39
2023-03-01T08:19:51.808Z,1009.34
2023-03-01T08:20:51.742Z,1009.36
2023-03-01T08:21:51.738Z,1009.35
2023-03-01T08:22:51.715Z,1009.41
2023-03-01T08:23:51.746Z,1009.36
2023-03-01T08:24:51.694Z,1009.40
2023-03-01T08:25:51.725Z,1009.39
2023-03-01T08:26:51.678Z,1009.40
2023-03-01T08:27:51.660Z,1009.33
2023-03-01T08:28:51.669Z,1009.30
2023-03-01T08:29:51.706Z,1009.36
2023-03-01T08:30:51.623Z,1009.30
2023-03-01T08:31:51.839Z,1009.30
2023-03-01T08:32:51.732Z,1009.31
2023-03-01T08:33:51.768Z,1009.30
2023-03-01T08:34:51.586Z,1009.29
2023-03-01T08:35:51.821Z,1009.26
2023-03-01T08:36:51.597Z,1009.34
2023-03-01T08:37:51.572Z,1009.31
2023-03-01T08:38:51.534Z,1009.32
2023-03-01T08:39:51.758Z,1009.33
2023-03-01T08:40:51.516Z,1009.32
2023-03-01T08:41:51.573Z,1009.22
2023-03-01T08:42:51.503Z,1009.23
2023-03-01T08:43:51.548Z,1009.26
2023-03-01T08:44:51.476Z,1009.21
2023-03-01T08:45:51.500Z,1009.26
2023-03-01T08:46:51.484Z,1009.26
2023-03-01T08:47:51.468Z,1009.22
2023-03-01T08:48:51.441Z,1009.20
2023-03-01T08:49:51.501Z,1009.21
2023-03-01T08:50:51.416Z,1009.20
2023-03-01T08:51:51.445Z,1009.25
2023-03-01T08:52:51.382Z,1009.22
2023-03-01T08:53:51.375Z,1009.21
2023-03-01T08:54:51.365Z,1009.19
2023-03-01T08:55:51.358Z,1009.17
2023-03-01T08:56:51.377Z,1009.14
2023-03-01T08:57:51.335Z,1009.17
2023-03-01T08:58:51.320Z,1009.16
2023-03-01T08:59:51.326Z,1009.15
2023-03-01T09:00:51.577Z,1009.09
2023-03-01T09:01:51.398Z,1009.06
2023-03-01T09:02:51.275Z,1009.01
2023-03-01T09:03:51.306Z,1009.06
2023-03-01T09:04:51.252Z,1009.03
2023-03-01T09:05:51.269Z,1009.01
2023-03-01T09:06:51.305Z,1008.92
2023-03-01T09:07:51.285Z,1008.99
2023-03-01T09:08:51.216Z,1008.95
2023-03-01T09:09:51.207Z,1008.95
2023-03-01T09:10:51.443Z,1008.99
2023-03-01T09:11:51.273Z,1008.96
2023-03-01T09:12:51.178Z,1009.07
2023-03-01T09:13:51.186Z,1009.05
2023-03-01T09:14:51.152Z,1009.01
2023-03-01T09:15:51.141Z,1008.94
2023-03-01T09:16:51.209Z,1008.97
2023-03-01T09:17:51.109Z,1008.96
2023-03-01T09:18:51.124Z,1009.00
2023-03-01T09:19:51.089Z,1008.98
2023-03-01T09:20:51.194Z,1009.01
2023-03-01T09:21:51.072Z,1008.90
2023-03-01T09:22:51.053Z,1008.88
2023-03-01T09:23:51.070Z,1008.97
2023-03-01T09:24:51.030Z,1008.93
2023-03-01T09:25:51.037Z,1008.91
2023-03-01T09:26:51.804Z,1008.94
2023-03-01T09:27:51.011Z,1008.91
2023-03-01T09:28:51.015Z,1008.94
2023-03-01T09:29:50.995Z,1008.98
2023-03-01T09:30:51.022Z,1008.93
2023-03-01T09:31:51.012Z,1008.89
2023-03-01T09:32:50.937Z,1008.97
2023-03-01T09:33:50.971Z,1008.91
2023-03-01T09:34:50.955Z,1008.85
2023-03-01T09:35:50.976Z,1008.89
2023-03-01T09:36:50.900Z,1008.89
2023-03-01T09:37:50.896Z,1008.82
2023-03-01T09:38:50.875Z,1008.76
2023-03-01T09:39:50.899Z,1008.83
2023-03-01T09:40:50.865Z,1008.80
2023-03-01T09:41:50.880Z,1008.84
2023-03-01T09:42:50.852Z,1008.82
2023-03-01T09:43:50.831Z,1008.78
2023-03-01T09:44:50.807Z,1008.81
2023-03-01T09:45:50.889Z,1008.79
2023-03-01T09:46:50.783Z,1008.81
2023-03-01T09:47:50.782Z,1008.81
2023-03-01T09:48:50.778Z,1008.82
2023-03-01T09:49:50.770Z,1008.84
2023-03-01T09:50:50.743Z,1008.80
2023-03-01T09:51:50.759Z,1008.83
2023-03-01T09:52:50.741Z,1008.79
2023-03-01T09:53:50.712Z,1008.82
2023-03-01T09:54:50.747Z,1008.83
2023-03-01T09:55:50.701Z,1008.83
2023-03-01T09:56:50.681Z,1008.88
2023-03-01T09:57:50.692Z,1008.83
2023-03-01T09:58:50.663Z,1008.95
2023-03-01T09:59:50.666Z,1008.84
2023-03-01T10:00:50.771Z,1008.86
2023-03-01T10:01:50.620Z,1008.81
2023-03-01T10:02:56.822Z,1008.77
2023-03-01T10:03:50.620Z,1008.85
2023-03-01T10:04:50.662Z,1008.81
2023-03-01T10:05:50.597Z,1008.77
2023-03-01T10:06:50.626Z,1008.72
2023-03-01T10:07:50.551Z,1008.80
2023-03-01T10:08:50.554Z,1008.70
2023-03-01T10:09:50.536Z,1008.73
2023-03-01T10:10:50.684Z,1008.71
2023-03-01T10:11:50.536Z,1008.73
2023-03-01T10:12:50.518Z,1008.69
2023-03-01T10:13:50.486Z,1008.69
2023-03-01T10:14:50.546Z,1008.65
2023-03-01T10:15:50.463Z,1008.69
2023-03-01T10:16:50.472Z,1008.69
2023-03-01T10:17:50.494Z,1008.66
2023-03-01T10:18:50.459Z,1008.63
2023-03-01T10:19:50.506Z,1008.63
2023-03-01T10:20:50.415Z,1008.59
2023-03-01T10:21:50.391Z,1008.61
2023-03-01T10:22:51.413Z,1008.59
2023-03-01T10:23:50.406Z,1008.57
2023-03-01T10:24:50.380Z,1008.59
2023-03-01T10:25:50.352Z,1008.54
2023-03-01T10:26:50.389Z,1008.47
2023-03-01T10:27:50.445Z,1008.49
2023-03-01T10:28:50.322Z,1008.49
2023-03-01T10:29:50.327Z,1008.49
2023-03-01T10:30:50.348Z,1008.44
2023-03-01T10:31:50.350Z,1008.44
2023-03-01T10:32:50.302Z,1008.40
2023-03-01T10:33:50.253Z,1008.44
2023-03-01T10:34:50.247Z,1008.41
2023-03-01T10:35:50.324Z,1008.41
2023-03-01T10:36:50.234Z,1008.46
2023-03-01T10:37:50.239Z,1008.37
2023-03-01T10:38:50.214Z,1008.41
2023-03-01T10:39:50.194Z,1008.45
2023-03-01T10:40:50.180Z,1008.41
2023-03-01T10:41:50.169Z,1008.39
2023-03-01T10:42:50.193Z,1008.36
2023-03-01T10:43:50.176Z,1008.41
2023-03-01T10:44:50.170Z,1008.36
2023-03-01T10:45:50.133Z,1008.40
2023-03-01T10:46:50.117Z,1008.30
2023-03-01T10:47:50.107Z,1008.33
2023-03-01T10:48:50.097Z,1008.33
2023-03-01T10:49:50.107Z,1008.32
2023-03-01T10:50:50.069Z,1008.32
2023-03-01T10:51:50.077Z,1008.28
2023-03-01T10:52:50.050Z,1008.29
2023-03-01T10:53:50.038Z,1008.31
2023-03-01T10:54:50.072Z,1008.27
2023-03-01T10:55:50.013Z,1008.26
2023-03-01T10:56:50.012Z,1008.22
2023-03-01T10:57:49.989Z,1008.20
2023-03-01T10:58:49.979Z,1008.23
2023-03-01T10:59:50.000Z,1008.22
2023-03-01T11:00:50.143Z,1008.18
2023-03-01T11:01:49.978Z,1008.22
2023-03-01T11:02:49.939Z,1008.18
2023-03-01T11:03:49.925Z,1008.24
2023-03-01T11:04:50.015Z,1008.24
2023-03-01T11:05:50.552Z,1008.07
2023-03-01T11:06:49.988Z,1008.15
2023-03-01T11:07:49.887Z,1008.14
2023-03-01T11:08:49.902Z,1008.12
2023-03-01T11:09:49.872Z,1008.16
2023-03-01T11:10:50.037Z,1008.15
2023-03-01T11:11:49.849Z,1008.16
2023-03-01T11:12:49.830Z,1008.13
2023-03-01T11:13:49.829Z,1008.14
2023-03-01T11:14:49.884Z,1008.13
2023-03-01T11:15:49.903Z,1008.17
2023-03-01T11:16:49.800Z,1008.13
2023-03-01T11:17:58.753Z,1008.12
2023-03-01T11:18:50.760Z,1008.10
2023-03-01T11:20:02.040Z,1008.06
2023-03-01T11:20:50.799Z,1008.08
2023-03-01T11:21:49.784Z,1008.00
2023-03-01T11:22:49.715Z,1008.09
2023-03-01T11:23:49.726Z,1008.09
2023-03-01T11:25:00.118Z,1008.00
2023-03-01T11:25:50.684Z,1008.04
2023-03-01T11:26:49.659Z,1008.07
2023-03-01T11:27:49.720Z,1008.07
2023-03-01T11:28:49.669Z,1008.09
2023-03-01T11:29:49.628Z,1008.08
2023-03-01T11:31:05.447Z,1008.05
2023-03-01T11:31:57.686Z,1008.03
2023-03-01T11:32:50.729Z,1008.03
2023-03-01T11:33:49.649Z,1008.04
2023-03-01T11:34:49.665Z,1008.04
2023-03-01T11:35:49.610Z,1008.02
2023-03-01T11:36:49.567Z,1008.03
2023-03-01T11:37:49.578Z,1008.02
2023-03-01T11:38:49.552Z,1008.00
2023-03-01T11:39:49.532Z,1007.99
2023-03-01T11:40:49.514Z,1007.97
2023-03-01T11:41:49.510Z,1007.99
2023-03-01T11:42:49.583Z,1008.03
2023-03-01T11:43:49.488Z,1007.97
2023-03-01T11:44:49.470Z,1007.92
2023-03-01T11:45:49.469Z,1007.87
2023-03-01T11:46:49.562Z,1007.90
2023-03-01T11:47:49.548Z,1007.89
2023-03-01T11:48:50.311Z,1007.88
2023-03-01T11:49:49.404Z,1007.82
2023-03-01T11:50:49.394Z,1007.81
2023-03-01T11:51:49.382Z,1007.80
2023-03-01T11:52:49.359Z,1007.77
2023-03-01T11:53:49.409Z,1007.79
2023-03-01T11:54:49.345Z,1007.74
2023-03-01T11:55:49.345Z,1007.74
2023-03-01T11:56:49.326Z,1007.74
2023-03-01T11:57:49.367Z,1007.75
2023-03-01T11:58:49.324Z,1007.75
2023-03-01T11:59:49.302Z,1007.70
2023-03-01T12:00:49.278Z,1007.69
2023-03-01T12:01:49.390Z,1007.65
2023-03-01T12:02:49.252Z,1007.67
2023-03-01T12:03:49.271Z,1007.67
2023-03-01T12:04:49.253Z,1007.65
2023-03-01T12:05:49.263Z,1007.65